La Gavraise 2 — FU6293 — position and weather

sailwx.info

Track history (hours):
 
Tides and Currents Weather Stations Pressure Air Temp Water Temp Dewpoint Dewpoint Depression Visibility Wind Speed Wind Dir Waves Ship Positions

La Gavraise 2

Last reported at 2018-May-24 17:28 UTC. Time now 2018-May-24 17:28 UTC.
Position N 47°44' W 003°22'.

Length 12 m.

Type: Fishing. MMSI: 227315950.

Date/timePositionNaut miles runAvg speedWind from/ knotsBaromVisibWave heightAir tempDewpointWater temp
2018-May-24 17:28N 47°44' W 003°22'0 0.0
2018-May-24 17:01N 47°44' W 003°22'0 0.0
2018-May-24 16:31N 47°44' W 003°22'0 0.0
2018-May-24 16:01N 47°44' W 003°22'0 0.0
2018-May-24 15:31N 47°44' W 003°22'0 0.0
2018-May-24 14:58N 47°44' W 003°22'0 0.0
2018-May-24 14:31N 47°44' W 003°22'0 0.2
2018-May-24 14:00N 47°44' W 003°22'0 0.0
2018-May-24 13:30N 47°44' W 003°22'16 1.4
2018-May-24 02:18N 47°29' W 003°31'3 9.0
2018-May-24 01:59N 47°31' W 003°28'4 8.8
2018-May-24 01:30N 47°35' W 003°26'5 9.3
2018-May-24 01:00N 47°39' W 003°23'4 8.7
2018-May-24 00:30N 47°44' W 003°22'0 0.5
2018-May-24 00:01N 47°44' W 003°22'0 0.0
2018-May-23 23:31N 47°44' W 003°22'0 0.0
2018-May-23 22:58N 47°44' W 003°22'0 0.0
2018-May-23 22:28N 47°44' W 003°22'0 0.0
2018-May-23 21:58N 47°44' W 003°22'0 0.0
2018-May-23 21:31N 47°44' W 003°22'0 0.0
2018-May-23 21:01N 47°44' W 003°22'0 0.0
2018-May-23 20:28N 47°44' W 003°22'0 0.0
2018-May-23 20:01N 47°44' W 003°22'0 0.0
2018-May-23 19:28N 47°44' W 003°22'0 0.0
2018-May-23 19:01N 47°44' W 003°22'0 0.0
2018-May-23 18:28N 47°44' W 003°22'0 0.0
2018-May-23 17:58N 47°44' W 003°22'0 0.0
2018-May-23 17:31N 47°44' W 003°22'0 0.0
2018-May-23 17:01N 47°44' W 003°22'0 0.0
2018-May-23 16:28N 47°44' W 003°22'0 0.0
2018-May-23 16:01N 47°44' W 003°22'0 0.0
2018-May-23 15:28N 47°44' W 003°22'0 0.0
2018-May-23 15:01N 47°44' W 003°22'0 0.0
2018-May-23 14:31N 47°44' W 003°22'0 0.0
2018-May-23 13:58N 47°44' W 003°22'0 0.2
2018-May-23 13:30N 47°44' W 003°22'1 1.9
2018-May-23 13:00N 47°43' W 003°22'4 8.1
2018-May-23 12:30N 47°39' W 003°23'4 8.3
2018-May-23 12:00N 47°35' W 003°23'4 8.5
2018-May-23 11:30N 47°30' W 003°23'11 1.5
2018-May-23 04:07N 47°19' W 003°21'1 8.4
2018-May-23 03:58N 47°19' W 003°22'3 2.9
2018-May-23 02:57N 47°22' W 003°25'3 5.2
2018-May-23 02:24N 47°24' W 003°26'4 8.9
2018-May-23 02:00N 47°28' W 003°25'4 8.7
2018-May-23 01:30N 47°32' W 003°23'4 8.7
2018-May-23 01:00N 47°36' W 003°22'4 8.7
2018-May-23 00:30N 47°41' W 003°22'3 6.1
2018-May-22 23:59N 47°44' W 003°22'0 0.0
2018-May-22 23:29N 47°44' W 003°22'0 0.0
2018-May-22 22:59N 47°44' W 003°22'0 0.0
2018-May-22 22:29N 47°44' W 003°22'0 0.0
2018-May-22 21:59N 47°44' W 003°22'0 0.0
2018-May-22 21:29N 47°44' W 003°22'0 0.0
2018-May-22 20:59N 47°44' W 003°22'0 0.0
2018-May-22 20:29N 47°44' W 003°22'0 0.0
2018-May-22 19:59N 47°44' W 003°22'0 0.0
2018-May-22 19:29N 47°44' W 003°22'0 0.0
2018-May-22 18:59N 47°44' W 003°22'0 0.0
2018-May-22 18:29N 47°44' W 003°22'0 0.0
2018-May-22 17:59N 47°44' W 003°22'0 0.0
2018-May-22 17:29N 47°44' W 003°22'0 0.0
2018-May-22 16:59N 47°44' W 003°22'0 0.0
2018-May-22 16:29N 47°44' W 003°22'0 0.0
2018-May-22 15:59N 47°44' W 003°22'0 0.0
2018-May-22 15:29N 47°44' W 003°22'0 0.2
2018-May-22 14:58N 47°44' W 003°22'0 0.0
2018-May-22 14:28N 47°44' W 003°22'2 3.4
2018-May-22 14:00N 47°42' W 003°22'4 8.5
2018-May-22 13:29N 47°38' W 003°22'4 8.7
2018-May-22 13:00N 47°34' W 003°21'4 8.7
2018-May-22 12:30N 47°29' W 003°21'4 8.6
2018-May-22 12:00N 47°25' W 003°20'5 0.7
2018-May-22 04:42N 47°21' W 003°16'3 1.5
2018-May-22 02:49N 47°22' W 003°20'3 8.3
2018-May-22 02:30N 47°25' W 003°20'4 8.3
2018-May-22 02:00N 47°29' W 003°21'4 8.6
2018-May-22 01:30N 47°33' W 003°22'4 8.7
2018-May-22 01:00N 47°37' W 003°22'4 8.5
2018-May-22 00:30N 47°41' W 003°22'2 4.5
2018-May-21 23:58N 47°44' W 003°22'0 0.0
2018-May-21 23:28N 47°44' W 003°22'0 0.0
2018-May-21 22:58N 47°44' W 003°22'0 0.0
2018-May-21 22:28N 47°44' W 003°22'0 0.0
2018-May-21 21:58N 47°44' W 003°22'0 0.0
2018-May-21 21:28N 47°44' W 003°22'0 0.0
2018-May-21 20:58N 47°44' W 003°22'0 0.0
2018-May-21 20:28N 47°44' W 003°22'0 0.0
2018-May-21 19:58N 47°44' W 003°22'0 0.0
2018-May-21 19:28N 47°44' W 003°22'0 0.0
2018-May-21 18:58N 47°44' W 003°22'0 0.0
2018-May-21 18:28N 47°44' W 003°22'0 0.0
2018-May-21 17:58N 47°44' W 003°22'0 0.0
2018-May-21 17:28N 47°44' W 003°22'0 0.0
2018-May-21 16:58N 47°44' W 003°22'0 0.2
2018-May-21 16:29N 47°44' W 003°22'0 0.0
2018-May-21 15:59N 47°44' W 003°22'4 7.7
2018-May-21 15:30N 47°40' W 003°23'5 9.2
2018-May-21 15:00N 47°36' W 003°25'5 9.1
2018-May-21 14:30N 47°32' W 003°28'4 8.7
2018-May-21 14:00N 47°28' W 003°30'4 7.7
2018-May-21 13:29N 47°24' W 003°33'1 2.5
2018-May-21 13:00N 47°23' W 003°34'0 0.2
2018-May-21 12:28N 47°23' W 003°34'0 0.0
2018-May-21 02:53N 47°23' W 003°34'2 5.7
2018-May-21 02:28N 47°25' W 003°32'4 8.7
2018-May-21 01:59N 47°29' W 003°29'4 8.6
2018-May-21 01:29N 47°33' W 003°26'4 8.6
2018-May-21 00:59N 47°37' W 003°23'4 8.4
2018-May-21 00:30N 47°41' W 003°22'3 6.2
2018-May-20 23:59N 47°44' W 003°22'0 0.0
2018-May-20 23:29N 47°44' W 003°22'0 0.0
2018-May-20 22:59N 47°44' W 003°22'0 0.0
2018-May-20 22:29N 47°44' W 003°22'0 0.0
2018-May-20 21:59N 47°44' W 003°22'0 0.0
2018-May-20 21:29N 47°44' W 003°22'0 0.0
2018-May-20 20:59N 47°44' W 003°22'0 0.0
2018-May-20 20:29N 47°44' W 003°22'0 0.0
2018-May-20 19:59N 47°44' W 003°22'0 0.0
2018-May-20 19:29N 47°44' W 003°22'0 0.0
2018-May-20 18:59N 47°44' W 003°22'0 0.0
2018-May-20 18:14N 47°44' W 003°22'0 0.0
2018-May-20 17:59N 47°44' W 003°22'0 0.0
2018-May-20 17:08N 47°44' W 003°22'0 0.0
2018-May-20 16:59N 47°44' W 003°22'0 0.0
2018-May-20 16:29N 47°44' W 003°22'0 0.0
2018-May-20 15:59N 47°44' W 003°22'0 0.0
2018-May-20 15:29N 47°44' W 003°22'0 0.0
2018-May-20 14:59N 47°44' W 003°22'0 0.0
2018-May-20 14:29N 47°44' W 003°22'0 0.0
2018-May-20 13:59N 47°44' W 003°22'0 0.0
2018-May-20 13:29N 47°44' W 003°22'0 0.0
2018-May-20 12:59N 47°44' W 003°22'0 0.0
2018-May-20 12:29N 47°44' W 003°22'0 0.0
2018-May-20 11:59N 47°44' W 003°22'0 0.0
2018-May-20 11:29N 47°44' W 003°22'0 0.0
2018-May-20 10:59N 47°44' W 003°22'0 0.0
2018-May-20 10:29N 47°44' W 003°22'2 4.1
2018-May-20 10:01N 47°42' W 003°23'4 6.8
2018-May-20 09:29N 47°42' W 003°28'0 0.4
2018-May-20 08:52N 47°42' W 003°28'0 0.6
2018-May-20 08:30N 47°42' W 003°28'4 7.6
2018-May-20 08:00N 47°42' W 003°22'2 3.3
2018-May-20 07:28N 47°44' W 003°22'0 0.0
2018-May-20 06:58N 47°44' W 003°22'0 0.0
2018-May-20 06:28N 47°44' W 003°22'0 0.0
2018-May-20 05:58N 47°44' W 003°22'0 0.0
2018-May-20 05:28N 47°44' W 003°22'0 0.0
2018-May-20 04:58N 47°44' W 003°22'0 0.0
2018-May-20 04:28N 47°44' W 003°22'0 0.0
2018-May-20 03:58N 47°44' W 003°22'0 0.0
2018-May-20 03:28N 47°44' W 003°22'0 0.0
2018-May-20 02:58N 47°44' W 003°22'0 0.0
2018-May-20 02:28N 47°44' W 003°22'0 0.0
2018-May-20 01:58N 47°44' W 003°22'0 0.0
2018-May-20 01:28N 47°44' W 003°22'0 0.0
2018-May-20 00:58N 47°44' W 003°22'0 0.0
2018-May-20 00:28N 47°44' W 003°22'0 0.0
2018-May-19 23:58N 47°44' W 003°22'0 0.0
2018-May-19 23:28N 47°44' W 003°22'0 0.0
2018-May-19 22:58N 47°44' W 003°22'0 0.0
2018-May-19 22:28N 47°44' W 003°22'0 0.0
2018-May-19 21:58N 47°44' W 003°22'0 0.0
2018-May-19 21:28N 47°44' W 003°22'0 0.0
2018-May-19 20:58N 47°44' W 003°22'0 0.0
2018-May-19 20:28N 47°44' W 003°22'0 0.0
2018-May-19 19:58N 47°44' W 003°22'0 0.0
2018-May-19 19:28N 47°44' W 003°22'0 0.0
2018-May-19 18:55N 47°44' W 003°22'0 0.0
2018-May-19 18:28N 47°44' W 003°22'0 0.0
2018-May-19 17:58N 47°44' W 003°22'0 0.0
2018-May-19 17:28N 47°44' W 003°22'0 0.0
2018-May-19 16:58N 47°44' W 003°22'0 0.0
2018-May-19 16:28N 47°44' W 003°22'0 0.0
2018-May-19 15:58N 47°44' W 003°22'0 0.0
2018-May-19 15:28N 47°44' W 003°22'0 0.0
2018-May-19 14:58N 47°44' W 003°22'0 0.0
2018-May-19 14:28N 47°44' W 003°22'0 0.0
2018-May-19 13:58N 47°44' W 003°22'0 0.2
2018-May-19 13:28N 47°44' W 003°22'0 0.0
2018-May-19 12:58N 47°44' W 003°22'0 0.0
2018-May-19 12:28N 47°44' W 003°22'1 1.8
2018-May-19 12:00N 47°43' W 003°22'4 8.8
2018-May-19 11:30N 47°39' W 003°22'5 9.1
2018-May-19 11:00N 47°34' W 003°21'5 9.0
2018-May-19 10:30N 47°30' W 003°20'4 0.5
2018-May-19 01:44N 47°34' W 003°21'4 8.7
2018-May-19 01:15N 47°38' W 003°22'2 8.6
2018-May-19 01:00N 47°40' W 003°23'4 7.1
2018-May-19 00:29N 47°44' W 003°22'0 0.3
2018-May-18 23:59N 47°44' W 003°22'0 0.0
2018-May-18 23:30N 47°44' W 003°22'0 0.0
2018-May-18 23:00N 47°44' W 003°22'0 0.0
2018-May-18 22:30N 47°44' W 003°22'0 0.0
2018-May-18 22:00N 47°44' W 003°22'0 0.0
2018-May-18 21:30N 47°44' W 003°22'0 0.0
2018-May-18 20:59N 47°44' W 003°22'0 0.0
2018-May-18 20:29N 47°44' W 003°22'0 0.0
2018-May-18 19:59N 47°44' W 003°22'0 0.0
2018-May-18 19:29N 47°44' W 003°22'0 0.0
2018-May-18 18:59N 47°44' W 003°22'0 0.0
2018-May-18 18:29N 47°44' W 003°22'0 0.0
2018-May-18 17:59N 47°44' W 003°22'0 0.0
2018-May-18 17:29N 47°44' W 003°22'0 0.0
2018-May-18 16:57N 47°44' W 003°22'0 0.0
2018-May-18 16:29N 47°44' W 003°22'0 0.0
2018-May-18 15:56N 47°44' W 003°22'0 0.0
2018-May-18 15:27N 47°44' W 003°22'0 0.0
2018-May-18 15:00N 47°44' W 003°22'0 0.0
2018-May-18 14:29N 47°44' W 003°22'0 0.0
2018-May-18 13:59N 47°44' W 003°22'0 0.1
2018-May-18 13:29N 47°44' W 003°22'0 0.0
2018-May-18 12:59N 47°44' W 003°22'4 7.7
2018-May-18 12:30N 47°40' W 003°22'4 8.9
2018-May-18 12:00N 47°36' W 003°22'4 8.7
2018-May-18 11:30N 47°31' W 003°22'5 9.0
2018-May-18 10:59N 47°27' W 003°22'4 7.7
2018-May-18 10:30N 47°23' W 003°21'2 2.9
2018-May-18 09:57N 47°22' W 003°20'2 0.2
2018-May-18 03:04N 47°23' W 003°21'1 5.5
2018-May-18 02:58N 47°23' W 003°21'4 8.5
2018-May-18 02:30N 47°27' W 003°22'5 8.3
2018-May-18 01:54N 47°32' W 003°23'3 8.4
2018-May-18 01:30N 47°36' W 003°23'4 8.6
2018-May-18 01:00N 47°40' W 003°22'4 7.4
2018-May-18 00:29N 47°44' W 003°22'0 0.4
2018-May-17 23:59N 47°44' W 003°22'0 0.0
2018-May-17 23:29N 47°44' W 003°22'0 0.0
2018-May-17 22:59N 47°44' W 003°22'0 0.0
2018-May-17 22:29N 47°44' W 003°22'0 0.0
2018-May-17 21:59N 47°44' W 003°22'0 0.0
2018-May-17 21:29N 47°44' W 003°22'0 0.0
2018-May-17 20:59N 47°44' W 003°22'0 0.0
2018-May-17 20:29N 47°44' W 003°22'0 0.0
2018-May-17 19:59N 47°44' W 003°22'0 0.0
2018-May-17 19:29N 47°44' W 003°22'0 0.0
2018-May-17 18:59N 47°44' W 003°22'0 0.0
2018-May-17 18:29N 47°44' W 003°22'0 0.0
2018-May-17 17:59N 47°44' W 003°22'0 0.0
2018-May-17 17:29N 47°44' W 003°22'0 0.0
2018-May-17 16:59N 47°44' W 003°22'0 0.0
2018-May-17 16:29N 47°44' W 003°22'0 0.0
2018-May-17 15:59N 47°44' W 003°22'0 0.0
2018-May-17 15:29N 47°44' W 003°22'0 0.0
2018-May-17 14:59N 47°44' W 003°22'0 0.0
2018-May-17 14:29N 47°44' W 003°22'0 0.0
2018-May-17 13:56N 47°44' W 003°22'0 0.2
2018-May-17 13:27N 47°44' W 003°22'0 0.0
2018-May-17 13:00N 47°44' W 003°22'2 4.2
2018-May-17 12:30N 47°42' W 003°22'5 8.9
2018-May-17 12:00N 47°37' W 003°21'4 9.0
2018-May-17 11:30N 47°33' W 003°20'5 9.0
2018-May-17 11:00N 47°28' W 003°18'10 1.1
2018-May-17 02:26N 47°27' W 003°33'4 8.5
2018-May-17 02:00N 47°31' W 003°30'4 8.4
2018-May-17 01:30N 47°34' W 003°26'4 8.6
2018-May-17 01:01N 47°38' W 003°24'4 8.6
2018-May-17 00:30N 47°42' W 003°22'2 3.5
2018-May-17 00:00N 47°44' W 003°22'0 0.0
2018-May-16 23:30N 47°44' W 003°22'0 0.0
2018-May-16 23:00N 47°44' W 003°22'0 0.0
2018-May-16 22:30N 47°44' W 003°22'0 0.0
2018-May-16 22:00N 47°44' W 003°22'0 0.0
2018-May-16 21:30N 47°44' W 003°22'0 0.0
2018-May-16 21:00N 47°44' W 003°22'0 0.0
2018-May-16 20:30N 47°44' W 003°22'0 0.0
2018-May-16 20:00N 47°44' W 003°22'0 0.0
2018-May-16 19:30N 47°44' W 003°22'0 0.0
2018-May-16 19:00N 47°44' W 003°22'0 0.0
2018-May-16 18:30N 47°44' W 003°22'0 0.0
2018-May-16 18:00N 47°44' W 003°22'0 0.0
2018-May-16 17:30N 47°44' W 003°22'0 0.0
2018-May-16 17:00N 47°44' W 003°22'0 0.0
2018-May-16 16:30N 47°44' W 003°22'0 0.0
2018-May-16 16:00N 47°44' W 003°22'0 0.0
2018-May-16 15:30N 47°44' W 003°22'0 0.0
2018-May-16 15:00N 47°44' W 003°22'0 0.0
2018-May-16 14:30N 47°44' W 003°22'0 0.0
2018-May-16 14:00N 47°44' W 003°22'0 0.0
2018-May-16 13:30N 47°44' W 003°22'0 0.0
2018-May-16 13:00N 47°44' W 003°22'0 0.0
2018-May-16 12:30N 47°44' W 003°22'0 0.2
2018-May-16 11:58N 47°44' W 003°22'0 0.9
2018-May-16 11:30N 47°43' W 003°22'4 8.5
2018-May-16 11:00N 47°39' W 003°22'4 8.5
2018-May-16 10:31N 47°35' W 003°21'4 8.6
2018-May-16 10:00N 47°31' W 003°19'4 8.8
2018-May-16 09:30N 47°26' W 003°18'6 0.9
2018-May-16 03:17N 47°21' W 003°16'2 8.1
2018-May-16 02:59N 47°23' W 003°17'4 9.1
2018-May-16 02:30N 47°27' W 003°19'4 8.8
2018-May-16 02:00N 47°32' W 003°20'4 8.6
2018-May-16 01:30N 47°36' W 003°21'5 8.8
2018-May-16 00:58N 47°41' W 003°22'3 6.6
2018-May-16 00:29N 47°44' W 003°22'0 0.4
2018-May-15 23:57N 47°44' W 003°22'0 0.0
2018-May-15 23:30N 47°44' W 003°22'0 0.0
2018-May-15 23:00N 47°44' W 003°22'0 0.0
2018-May-15 22:30N 47°44' W 003°22'0 0.0
2018-May-15 22:00N 47°44' W 003°22'0 0.0
2018-May-15 21:30N 47°44' W 003°22'0 0.0
2018-May-15 21:00N 47°44' W 003°22'0 0.0
2018-May-15 20:30N 47°44' W 003°22'0 0.0
2018-May-15 20:00N 47°44' W 003°22'0 0.0
2018-May-15 19:30N 47°44' W 003°22'0 0.0
2018-May-15 19:00N 47°44' W 003°22'0 0.0
2018-May-15 18:30N 47°44' W 003°22'0 0.0
2018-May-15 18:00N 47°44' W 003°22'0 0.0
2018-May-15 17:30N 47°44' W 003°22'0 0.0
2018-May-15 17:00N 47°44' W 003°22'0 0.0
2018-May-15 16:30N 47°44' W 003°22'0 0.0
2018-May-15 16:00N 47°44' W 003°22'0 0.0
2018-May-15 15:30N 47°44' W 003°22'0 0.0
2018-May-15 15:00N 47°44' W 003°22'0 0.0
2018-May-15 14:30N 47°44' W 003°22'0 0.0
2018-May-15 14:00N 47°44' W 003°22'0 0.0
2018-May-15 13:30N 47°44' W 003°22'0 0.0
2018-May-15 13:00N 47°44' W 003°22'0 0.0
2018-May-15 12:30N 47°44' W 003°22'0 0.0
2018-May-15 12:00N 47°44' W 003°22'0 0.0
2018-May-15 11:30N 47°44' W 003°22'0 0.0
2018-May-15 11:00N 47°44' W 003°22'0 0.0
2018-May-15 10:30N 47°44' W 003°22'0 0.0
2018-May-15 10:00N 47°44' W 003°22'0 0.0
2018-May-15 09:30N 47°44' W 003°22'0 0.0
2018-May-15 09:00N 47°44' W 003°22'0 0.0
2018-May-15 08:30N 47°44' W 003°22'0 0.0
2018-May-15 08:00N 47°44' W 003°22'0 0.0
2018-May-15 07:30N 47°44' W 003°22'0 0.0
2018-May-15 07:00N 47°44' W 003°22'0 0.0
2018-May-15 06:30N 47°44' W 003°22'0 0.0
2018-May-15 06:00N 47°44' W 003°22'0 0.0
2018-May-15 05:30N 47°44' W 003°22'0 0.0
2018-May-15 05:00N 47°44' W 003°22'0 0.0
2018-May-15 04:30N 47°44' W 003°22'0 0.0
2018-May-15 04:00N 47°44' W 003°22'0 0.0
2018-May-15 03:30N 47°44' W 003°22'0 0.0
2018-May-15 03:00N 47°44' W 003°22'0 0.0
2018-May-15 02:30N 47°44' W 003°22'0 0.0
2018-May-15 02:00N 47°44' W 003°22'0 0.0
2018-May-15 01:30N 47°44' W 003°22'0 0.0
2018-May-15 01:00N 47°44' W 003°22'0 0.0
2018-May-15 00:30N 47°44' W 003°22'0 0.0
2018-May-15 00:00N 47°44' W 003°22'0 0.0
2018-May-14 23:30N 47°44' W 003°22'0 0.0
2018-May-14 23:00N 47°44' W 003°22'0 0.0
2018-May-14 22:30N 47°44' W 003°22'0 0.0
2018-May-14 22:00N 47°44' W 003°22'0 0.0
2018-May-14 21:30N 47°44' W 003°22'0 0.0
2018-May-14 21:00N 47°44' W 003°22'0 0.0
2018-May-14 20:30N 47°44' W 003°22'0 0.0
2018-May-14 20:00N 47°44' W 003°22'0 0.0
2018-May-14 19:30N 47°44' W 003°22'0 0.0
2018-May-14 19:00N 47°44' W 003°22'0 0.2
2018-May-14 18:28N 47°44' W 003°22'0 0.3
2018-May-14 17:59N 47°44' W 003°22'4 7.7
2018-May-14 17:30N 47°40' W 003°23'  
Track history (hours):
 
Tides and Currents Weather Stations Pressure Air Temp Water Temp Dewpoint Dewpoint Depression Visibility Wind Speed Wind Dir Waves Ship Positions

La Gavraise 2

Last reported at 2018-May-24 17:28 UTC. Time now 2018-May-24 17:28 UTC.
Position N 47°44' W 003°22'.

Length 12 m.

Type: Fishing. MMSI: 227315950.

Date/timePositionNaut miles runAvg speedWind from/ knotsBaromVisibWave heightAir tempDewpointWater temp
2018-May-24 17:28N 47°44' W 003°22'0 0.0
2018-May-24 17:01N 47°44' W 003°22'0 0.0
2018-May-24 16:31N 47°44' W 003°22'0 0.0
2018-May-24 16:01N 47°44' W 003°22'0 0.0
2018-May-24 15:31N 47°44' W 003°22'0 0.0
2018-May-24 14:58N 47°44' W 003°22'0 0.0
2018-May-24 14:31N 47°44' W 003°22'0 0.2
2018-May-24 14:00N 47°44' W 003°22'0 0.0
2018-May-24 13:30N 47°44' W 003°22'16 1.4
2018-May-24 02:18N 47°29' W 003°31'3 9.0
2018-May-24 01:59N 47°31' W 003°28'4 8.8
2018-May-24 01:30N 47°35' W 003°26'5 9.3
2018-May-24 01:00N 47°39' W 003°23'4 8.7
2018-May-24 00:30N 47°44' W 003°22'0 0.5
2018-May-24 00:01N 47°44' W 003°22'0 0.0
2018-May-23 23:31N 47°44' W 003°22'0 0.0
2018-May-23 22:58N 47°44' W 003°22'0 0.0
2018-May-23 22:28N 47°44' W 003°22'0 0.0
2018-May-23 21:58N 47°44' W 003°22'0 0.0
2018-May-23 21:31N 47°44' W 003°22'0 0.0
2018-May-23 21:01N 47°44' W 003°22'0 0.0
2018-May-23 20:28N 47°44' W 003°22'0 0.0
2018-May-23 20:01N 47°44' W 003°22'0 0.0
2018-May-23 19:28N 47°44' W 003°22'0 0.0
2018-May-23 19:01N 47°44' W 003°22'0 0.0
2018-May-23 18:28N 47°44' W 003°22'0 0.0
2018-May-23 17:58N 47°44' W 003°22'0 0.0
2018-May-23 17:31N 47°44' W 003°22'0 0.0
2018-May-23 17:01N 47°44' W 003°22'0 0.0
2018-May-23 16:28N 47°44' W 003°22'0 0.0
2018-May-23 16:01N 47°44' W 003°22'0 0.0
2018-May-23 15:28N 47°44' W 003°22'0 0.0
2018-May-23 15:01N 47°44' W 003°22'0 0.0
2018-May-23 14:31N 47°44' W 003°22'0 0.0
2018-May-23 13:58N 47°44' W 003°22'0 0.2
2018-May-23 13:30N 47°44' W 003°22'1 1.9
2018-May-23 13:00N 47°43' W 003°22'4 8.1
2018-May-23 12:30N 47°39' W 003°23'4 8.3
2018-May-23 12:00N 47°35' W 003°23'4 8.5
2018-May-23 11:30N 47°30' W 003°23'11 1.5
2018-May-23 04:07N 47°19' W 003°21'1 8.4
2018-May-23 03:58N 47°19' W 003°22'3 2.9
2018-May-23 02:57N 47°22' W 003°25'3 5.2
2018-May-23 02:24N 47°24' W 003°26'4 8.9
2018-May-23 02:00N 47°28' W 003°25'4 8.7
2018-May-23 01:30N 47°32' W 003°23'4 8.7
2018-May-23 01:00N 47°36' W 003°22'4 8.7
2018-May-23 00:30N 47°41' W 003°22'3 6.1
2018-May-22 23:59N 47°44' W 003°22'0 0.0
2018-May-22 23:29N 47°44' W 003°22'0 0.0
2018-May-22 22:59N 47°44' W 003°22'0 0.0
2018-May-22 22:29N 47°44' W 003°22'0 0.0
2018-May-22 21:59N 47°44' W 003°22'0 0.0
2018-May-22 21:29N 47°44' W 003°22'0 0.0
2018-May-22 20:59N 47°44' W 003°22'0 0.0
2018-May-22 20:29N 47°44' W 003°22'0 0.0
2018-May-22 19:59N 47°44' W 003°22'0 0.0
2018-May-22 19:29N 47°44' W 003°22'0 0.0
2018-May-22 18:59N 47°44' W 003°22'0 0.0
2018-May-22 18:29N 47°44' W 003°22'0 0.0
2018-May-22 17:59N 47°44' W 003°22'0 0.0
2018-May-22 17:29N 47°44' W 003°22'0 0.0
2018-May-22 16:59N 47°44' W 003°22'0 0.0
2018-May-22 16:29N 47°44' W 003°22'0 0.0
2018-May-22 15:59N 47°44' W 003°22'0 0.0
2018-May-22 15:29N 47°44' W 003°22'0 0.2
2018-May-22 14:58N 47°44' W 003°22'0 0.0
2018-May-22 14:28N 47°44' W 003°22'2 3.4
2018-May-22 14:00N 47°42' W 003°22'4 8.5
2018-May-22 13:29N 47°38' W 003°22'4 8.7
2018-May-22 13:00N 47°34' W 003°21'4 8.7
2018-May-22 12:30N 47°29' W 003°21'4 8.6
2018-May-22 12:00N 47°25' W 003°20'5 0.7
2018-May-22 04:42N 47°21' W 003°16'3 1.5
2018-May-22 02:49N 47°22' W 003°20'3 8.3
2018-May-22 02:30N 47°25' W 003°20'4 8.3
2018-May-22 02:00N 47°29' W 003°21'4 8.6
2018-May-22 01:30N 47°33' W 003°22'4 8.7
2018-May-22 01:00N 47°37' W 003°22'4 8.5
2018-May-22 00:30N 47°41' W 003°22'2 4.5
2018-May-21 23:58N 47°44' W 003°22'0 0.0
2018-May-21 23:28N 47°44' W 003°22'0 0.0
2018-May-21 22:58N 47°44' W 003°22'0 0.0
2018-May-21 22:28N 47°44' W 003°22'0 0.0
2018-May-21 21:58N 47°44' W 003°22'0 0.0
2018-May-21 21:28N 47°44' W 003°22'0 0.0
2018-May-21 20:58N 47°44' W 003°22'0 0.0
2018-May-21 20:28N 47°44' W 003°22'0 0.0
2018-May-21 19:58N 47°44' W 003°22'0 0.0
2018-May-21 19:28N 47°44' W 003°22'0 0.0
2018-May-21 18:58N 47°44' W 003°22'0 0.0
2018-May-21 18:28N 47°44' W 003°22'0 0.0
2018-May-21 17:58N 47°44' W 003°22'0 0.0
2018-May-21 17:28N 47°44' W 003°22'0 0.0
2018-May-21 16:58N 47°44' W 003°22'0 0.2
2018-May-21 16:29N 47°44' W 003°22'0 0.0
2018-May-21 15:59N 47°44' W 003°22'4 7.7
2018-May-21 15:30N 47°40' W 003°23'5 9.2
2018-May-21 15:00N 47°36' W 003°25'5 9.1
2018-May-21 14:30N 47°32' W 003°28'4 8.7
2018-May-21 14:00N 47°28' W 003°30'4 7.7
2018-May-21 13:29N 47°24' W 003°33'1 2.5
2018-May-21 13:00N 47°23' W 003°34'0 0.2
2018-May-21 12:28N 47°23' W 003°34'0 0.0
2018-May-21 02:53N 47°23' W 003°34'2 5.7
2018-May-21 02:28N 47°25' W 003°32'4 8.7
2018-May-21 01:59N 47°29' W 003°29'4 8.6
2018-May-21 01:29N 47°33' W 003°26'4 8.6
2018-May-21 00:59N 47°37' W 003°23'4 8.4
2018-May-21 00:30N 47°41' W 003°22'3 6.2
2018-May-20 23:59N 47°44' W 003°22'0 0.0
2018-May-20 23:29N 47°44' W 003°22'0 0.0
2018-May-20 22:59N 47°44' W 003°22'0 0.0
2018-May-20 22:29N 47°44' W 003°22'0 0.0
2018-May-20 21:59N 47°44' W 003°22'0 0.0
2018-May-20 21:29N 47°44' W 003°22'0 0.0
2018-May-20 20:59N 47°44' W 003°22'0 0.0
2018-May-20 20:29N 47°44' W 003°22'0 0.0
2018-May-20 19:59N 47°44' W 003°22'0 0.0
2018-May-20 19:29N 47°44' W 003°22'0 0.0
2018-May-20 18:59N 47°44' W 003°22'0 0.0
2018-May-20 18:14N 47°44' W 003°22'0 0.0
2018-May-20 17:59N 47°44' W 003°22'0 0.0
2018-May-20 17:08N 47°44' W 003°22'0 0.0
2018-May-20 16:59N 47°44' W 003°22'0 0.0
2018-May-20 16:29N 47°44' W 003°22'0 0.0
2018-May-20 15:59N 47°44' W 003°22'0 0.0
2018-May-20 15:29N 47°44' W 003°22'0 0.0
2018-May-20 14:59N 47°44' W 003°22'0 0.0
2018-May-20 14:29N 47°44' W 003°22'0 0.0
2018-May-20 13:59N 47°44' W 003°22'0 0.0
2018-May-20 13:29N 47°44' W 003°22'0 0.0
2018-May-20 12:59N 47°44' W 003°22'0 0.0
2018-May-20 12:29N 47°44' W 003°22'0 0.0
2018-May-20 11:59N 47°44' W 003°22'0 0.0
2018-May-20 11:29N 47°44' W 003°22'0 0.0
2018-May-20 10:59N 47°44' W 003°22'0 0.0
2018-May-20 10:29N 47°44' W 003°22'2 4.1
2018-May-20 10:01N 47°42' W 003°23'4 6.8
2018-May-20 09:29N 47°42' W 003°28'0 0.4
2018-May-20 08:52N 47°42' W 003°28'0 0.6
2018-May-20 08:30N 47°42' W 003°28'4 7.6
2018-May-20 08:00N 47°42' W 003°22'2 3.3
2018-May-20 07:28N 47°44' W 003°22'0 0.0
2018-May-20 06:58N 47°44' W 003°22'0 0.0
2018-May-20 06:28N 47°44' W 003°22'0 0.0
2018-May-20 05:58N 47°44' W 003°22'0 0.0
2018-May-20 05:28N 47°44' W 003°22'0 0.0
2018-May-20 04:58N 47°44' W 003°22'0 0.0
2018-May-20 04:28N 47°44' W 003°22'0 0.0
2018-May-20 03:58N 47°44' W 003°22'0 0.0
2018-May-20 03:28N 47°44' W 003°22'0 0.0
2018-May-20 02:58N 47°44' W 003°22'0 0.0
2018-May-20 02:28N 47°44' W 003°22'0 0.0
2018-May-20 01:58N 47°44' W 003°22'0 0.0
2018-May-20 01:28N 47°44' W 003°22'0 0.0
2018-May-20 00:58N 47°44' W 003°22'0 0.0
2018-May-20 00:28N 47°44' W 003°22'0 0.0
2018-May-19 23:58N 47°44' W 003°22'0 0.0
2018-May-19 23:28N 47°44' W 003°22'0 0.0
2018-May-19 22:58N 47°44' W 003°22'0 0.0
2018-May-19 22:28N 47°44' W 003°22'0 0.0
2018-May-19 21:58N 47°44' W 003°22'0 0.0
2018-May-19 21:28N 47°44' W 003°22'0 0.0
2018-May-19 20:58N 47°44' W 003°22'0 0.0
2018-May-19 20:28N 47°44' W 003°22'0 0.0
2018-May-19 19:58N 47°44' W 003°22'0 0.0
2018-May-19 19:28N 47°44' W 003°22'0 0.0
2018-May-19 18:55N 47°44' W 003°22'0 0.0
2018-May-19 18:28N 47°44' W 003°22'0 0.0
2018-May-19 17:58N 47°44' W 003°22'0 0.0
2018-May-19 17:28N 47°44' W 003°22'0 0.0
2018-May-19 16:58N 47°44' W 003°22'0 0.0
2018-May-19 16:28N 47°44' W 003°22'0 0.0
2018-May-19 15:58N 47°44' W 003°22'0 0.0
2018-May-19 15:28N 47°44' W 003°22'0 0.0
2018-May-19 14:58N 47°44' W 003°22'0 0.0
2018-May-19 14:28N 47°44' W 003°22'0 0.0
2018-May-19 13:58N 47°44' W 003°22'0 0.2
2018-May-19 13:28N 47°44' W 003°22'0 0.0
2018-May-19 12:58N 47°44' W 003°22'0 0.0
2018-May-19 12:28N 47°44' W 003°22'1 1.8
2018-May-19 12:00N 47°43' W 003°22'4 8.8
2018-May-19 11:30N 47°39' W 003°22'5 9.1
2018-May-19 11:00N 47°34' W 003°21'5 9.0
2018-May-19 10:30N 47°30' W 003°20'4 0.5
2018-May-19 01:44N 47°34' W 003°21'4 8.7
2018-May-19 01:15N 47°38' W 003°22'2 8.6
2018-May-19 01:00N 47°40' W 003°23'4 7.1
2018-May-19 00:29N 47°44' W 003°22'0 0.3
2018-May-18 23:59N 47°44' W 003°22'0 0.0
2018-May-18 23:30N 47°44' W 003°22'0 0.0
2018-May-18 23:00N 47°44' W 003°22'0 0.0
2018-May-18 22:30N 47°44' W 003°22'0 0.0
2018-May-18 22:00N 47°44' W 003°22'0 0.0
2018-May-18 21:30N 47°44' W 003°22'0 0.0
2018-May-18 20:59N 47°44' W 003°22'0 0.0
2018-May-18 20:29N 47°44' W 003°22'0 0.0
2018-May-18 19:59N 47°44' W 003°22'0 0.0
2018-May-18 19:29N 47°44' W 003°22'0 0.0
2018-May-18 18:59N 47°44' W 003°22'0 0.0
2018-May-18 18:29N 47°44' W 003°22'0 0.0
2018-May-18 17:59N 47°44' W 003°22'0 0.0
2018-May-18 17:29N 47°44' W 003°22'0 0.0
2018-May-18 16:57N 47°44' W 003°22'0 0.0
2018-May-18 16:29N 47°44' W 003°22'0 0.0
2018-May-18 15:56N 47°44' W 003°22'0 0.0
2018-May-18 15:27N 47°44' W 003°22'0 0.0
2018-May-18 15:00N 47°44' W 003°22'0 0.0
2018-May-18 14:29N 47°44' W 003°22'0 0.0
2018-May-18 13:59N 47°44' W 003°22'0 0.1
2018-May-18 13:29N 47°44' W 003°22'0 0.0
2018-May-18 12:59N 47°44' W 003°22'4 7.7
2018-May-18 12:30N 47°40' W 003°22'4 8.9
2018-May-18 12:00N 47°36' W 003°22'4 8.7
2018-May-18 11:30N 47°31' W 003°22'5 9.0
2018-May-18 10:59N 47°27' W 003°22'4 7.7
2018-May-18 10:30N 47°23' W 003°21'2 2.9
2018-May-18 09:57N 47°22' W 003°20'2 0.2
2018-May-18 03:04N 47°23' W 003°21'1 5.5
2018-May-18 02:58N 47°23' W 003°21'4 8.5
2018-May-18 02:30N 47°27' W 003°22'5 8.3
2018-May-18 01:54N 47°32' W 003°23'3 8.4
2018-May-18 01:30N 47°36' W 003°23'4 8.6
2018-May-18 01:00N 47°40' W 003°22'4 7.4
2018-May-18 00:29N 47°44' W 003°22'0 0.4
2018-May-17 23:59N 47°44' W 003°22'0 0.0
2018-May-17 23:29N 47°44' W 003°22'0 0.0
2018-May-17 22:59N 47°44' W 003°22'0 0.0
2018-May-17 22:29N 47°44' W 003°22'0 0.0
2018-May-17 21:59N 47°44' W 003°22'0 0.0
2018-May-17 21:29N 47°44' W 003°22'0 0.0
2018-May-17 20:59N 47°44' W 003°22'0 0.0
2018-May-17 20:29N 47°44' W 003°22'0 0.0
2018-May-17 19:59N 47°44' W 003°22'0 0.0
2018-May-17 19:29N 47°44' W 003°22'0 0.0
2018-May-17 18:59N 47°44' W 003°22'0 0.0
2018-May-17 18:29N 47°44' W 003°22'0 0.0
2018-May-17 17:59N 47°44' W 003°22'0 0.0
2018-May-17 17:29N 47°44' W 003°22'0 0.0
2018-May-17 16:59N 47°44' W 003°22'0 0.0
2018-May-17 16:29N 47°44' W 003°22'0 0.0
2018-May-17 15:59N 47°44' W 003°22'0 0.0
2018-May-17 15:29N 47°44' W 003°22'0 0.0
2018-May-17 14:59N 47°44' W 003°22'0 0.0
2018-May-17 14:29N 47°44' W 003°22'0 0.0
2018-May-17 13:56N 47°44' W 003°22'0 0.2
2018-May-17 13:27N 47°44' W 003°22'0 0.0
2018-May-17 13:00N 47°44' W 003°22'2 4.2
2018-May-17 12:30N 47°42' W 003°22'5 8.9
2018-May-17 12:00N 47°37' W 003°21'4 9.0
2018-May-17 11:30N 47°33' W 003°20'5 9.0
2018-May-17 11:00N 47°28' W 003°18'10 1.1
2018-May-17 02:26N 47°27' W 003°33'4 8.5
2018-May-17 02:00N 47°31' W 003°30'4 8.4
2018-May-17 01:30N 47°34' W 003°26'4 8.6
2018-May-17 01:01N 47°38' W 003°24'4 8.6
2018-May-17 00:30N 47°42' W 003°22'2 3.5
2018-May-17 00:00N 47°44' W 003°22'0 0.0
2018-May-16 23:30N 47°44' W 003°22'0 0.0
2018-May-16 23:00N 47°44' W 003°22'0 0.0
2018-May-16 22:30N 47°44' W 003°22'0 0.0
2018-May-16 22:00N 47°44' W 003°22'0 0.0
2018-May-16 21:30N 47°44' W 003°22'0 0.0
2018-May-16 21:00N 47°44' W 003°22'0 0.0
2018-May-16 20:30N 47°44' W 003°22'0 0.0
2018-May-16 20:00N 47°44' W 003°22'0 0.0
2018-May-16 19:30N 47°44' W 003°22'0 0.0
2018-May-16 19:00N 47°44' W 003°22'0 0.0
2018-May-16 18:30N 47°44' W 003°22'0 0.0
2018-May-16 18:00N 47°44' W 003°22'0 0.0
2018-May-16 17:30N 47°44' W 003°22'0 0.0
2018-May-16 17:00N 47°44' W 003°22'0 0.0
2018-May-16 16:30N 47°44' W 003°22'0 0.0
2018-May-16 16:00N 47°44' W 003°22'0 0.0
2018-May-16 15:30N 47°44' W 003°22'0 0.0
2018-May-16 15:00N 47°44' W 003°22'0 0.0
2018-May-16 14:30N 47°44' W 003°22'0 0.0
2018-May-16 14:00N 47°44' W 003°22'0 0.0
2018-May-16 13:30N 47°44' W 003°22'0 0.0
2018-May-16 13:00N 47°44' W 003°22'0 0.0
2018-May-16 12:30N 47°44' W 003°22'0 0.2
2018-May-16 11:58N 47°44' W 003°22'0 0.9
2018-May-16 11:30N 47°43' W 003°22'4 8.5
2018-May-16 11:00N 47°39' W 003°22'4 8.5
2018-May-16 10:31N 47°35' W 003°21'4 8.6
2018-May-16 10:00N 47°31' W 003°19'4 8.8
2018-May-16 09:30N 47°26' W 003°18'6 0.9
2018-May-16 03:17N 47°21' W 003°16'2 8.1
2018-May-16 02:59N 47°23' W 003°17'4 9.1
2018-May-16 02:30N 47°27' W 003°19'4 8.8
2018-May-16 02:00N 47°32' W 003°20'4 8.6
2018-May-16 01:30N 47°36' W 003°21'5 8.8
2018-May-16 00:58N 47°41' W 003°22'3 6.6
2018-May-16 00:29N 47°44' W 003°22'0 0.4
2018-May-15 23:57N 47°44' W 003°22'0 0.0
2018-May-15 23:30N 47°44' W 003°22'0 0.0
2018-May-15 23:00N 47°44' W 003°22'0 0.0
2018-May-15 22:30N 47°44' W 003°22'0 0.0
2018-May-15 22:00N 47°44' W 003°22'0 0.0
2018-May-15 21:30N 47°44' W 003°22'0 0.0
2018-May-15 21:00N 47°44' W 003°22'0 0.0
2018-May-15 20:30N 47°44' W 003°22'0 0.0
2018-May-15 20:00N 47°44' W 003°22'0 0.0
2018-May-15 19:30N 47°44' W 003°22'0 0.0
2018-May-15 19:00N 47°44' W 003°22'0 0.0
2018-May-15 18:30N 47°44' W 003°22'0 0.0
2018-May-15 18:00N 47°44' W 003°22'0 0.0
2018-May-15 17:30N 47°44' W 003°22'0 0.0
2018-May-15 17:00N 47°44' W 003°22'0 0.0
2018-May-15 16:30N 47°44' W 003°22'0 0.0
2018-May-15 16:00N 47°44' W 003°22'0 0.0
2018-May-15 15:30N 47°44' W 003°22'0 0.0
2018-May-15 15:00N 47°44' W 003°22'0 0.0
2018-May-15 14:30N 47°44' W 003°22'0 0.0
2018-May-15 14:00N 47°44' W 003°22'0 0.0
2018-May-15 13:30N 47°44' W 003°22'0 0.0
2018-May-15 13:00N 47°44' W 003°22'0 0.0
2018-May-15 12:30N 47°44' W 003°22'0 0.0
2018-May-15 12:00N 47°44' W 003°22'0 0.0
2018-May-15 11:30N 47°44' W 003°22'0 0.0
2018-May-15 11:00N 47°44' W 003°22'0 0.0
2018-May-15 10:30N 47°44' W 003°22'0 0.0
2018-May-15 10:00N 47°44' W 003°22'0 0.0
2018-May-15 09:30N 47°44' W 003°22'0 0.0
2018-May-15 09:00N 47°44' W 003°22'0 0.0
2018-May-15 08:30N 47°44' W 003°22'0 0.0
2018-May-15 08:00N 47°44' W 003°22'0 0.0
2018-May-15 07:30N 47°44' W 003°22'0 0.0
2018-May-15 07:00N 47°44' W 003°22'0 0.0
2018-May-15 06:30N 47°44' W 003°22'0 0.0
2018-May-15 06:00N 47°44' W 003°22'0 0.0
2018-May-15 05:30N 47°44' W 003°22'0 0.0
2018-May-15 05:00N 47°44' W 003°22'0 0.0
2018-May-15 04:30N 47°44' W 003°22'0 0.0
2018-May-15 04:00N 47°44' W 003°22'0 0.0
2018-May-15 03:30N 47°44' W 003°22'0 0.0
2018-May-15 03:00N 47°44' W 003°22'0 0.0
2018-May-15 02:30N 47°44' W 003°22'0 0.0
2018-May-15 02:00N 47°44' W 003°22'0 0.0
2018-May-15 01:30N 47°44' W 003°22'0 0.0
2018-May-15 01:00N 47°44' W 003°22'0 0.0
2018-May-15 00:30N 47°44' W 003°22'0 0.0
2018-May-15 00:00N 47°44' W 003°22'0 0.0
2018-May-14 23:30N 47°44' W 003°22'0 0.0
2018-May-14 23:00N 47°44' W 003°22'0 0.0
2018-May-14 22:30N 47°44' W 003°22'0 0.0
2018-May-14 22:00N 47°44' W 003°22'0 0.0
2018-May-14 21:30N 47°44' W 003°22'0 0.0
2018-May-14 21:00N 47°44' W 003°22'0 0.0
2018-May-14 20:30N 47°44' W 003°22'0 0.0
2018-May-14 20:00N 47°44' W 003°22'0 0.0
2018-May-14 19:30N 47°44' W 003°22'0 0.0
2018-May-14 19:00N 47°44' W 003°22'0 0.2
2018-May-14 18:28N 47°44' W 003°22'0 0.3
2018-May-14 17:59N 47°44' W 003°22'4 7.7
2018-May-14 17:30N 47°40' W 003°23'  

Dump ship's entire track history